Time;durP1;ratioP1;P1;durP2;ratioP2;P2;SDS_P1;SDS_P2;PMS_P1;PMS_P2;Temp;Humidity;BMP_temperature;BMP_pressure;BME280_temperature;BME280_humidity;BME280_pressure;Samples;Min_cycle;Max_cycle;Signal;HPM_P1;HPM_P2
2024/01/11 00:01:07;;;;;;;;;;;;;;;;;;5053028;28;19968;-68
2024/01/11 00:03:33;;;;;;;;;;;;;;;;;;5053911;28;19967;-68
2024/01/11 00:05:59;;;;;;;;;;;;;;;;;;5054153;28;19959;-68
2024/01/11 00:08:25;;;;;;;;;;;;;;;;;;5054345;28;19956;-68
2024/01/11 00:10:51;;;;;;;;;;;;;;;;;;5053845;28;19908;-68
2024/01/11 00:13:17;;;;;;;;;;;;;;;;;;5054105;28;19916;-68
2024/01/11 00:15:43;;;;;;;;;;;;;;;;;;5053739;28;19994;-68
2024/01/11 00:18:09;;;;;;;;;;;;;;;;;;5053990;28;19959;-68
2024/01/11 00:20:35;;;;;;;;;;;;;;;;;;5053897;28;19917;-68
2024/01/11 00:23:01;;;;;;;;;;;;;;;;;;5053505;28;19909;-68
2024/01/11 00:25:27;;;;;;;;;;;;;;;;;;5053954;28;19909;-68
2024/01/11 00:27:53;;;;;;;;;;;;;;;;;;5053949;28;20268;-68
2024/01/11 00:30:19;;;;;;;;;;;;;;;;;;5053540;28;20340;-68
2024/01/11 00:32:44;;;;;;;;;;;;;;;;;;5054104;28;20365;-68
2024/01/11 00:35:10;;;;;;;;;;;;;;;;;;5054361;28;19915;-68
2024/01/11 00:37:36;;;;;;;;;;;;;;;;;;5053731;28;19909;-68
2024/01/11 00:40:02;;;;;;;;;;;;;;;;;;5053692;28;19970;-68
2024/01/11 00:42:28;;;;;;;;;;;;;;;;;;5053807;28;19948;-68
2024/01/11 00:44:55;;;;;;;;;;;;;;;;;;5053346;28;19920;-67
2024/01/11 00:47:21;;;;;;;;;;;;;;;;;;5053912;28;19909;-68
2024/01/11 00:49:46;;;;;;;;;;;;;;;;;;5052390;28;19962;-68
2024/01/11 00:52:13;;;;;;;;;;;;;;;;;;5052018;28;19909;-68
2024/01/11 00:54:40;;;;;;;;;;;;;;;;;;5052274;28;19998;-67
2024/01/11 00:57:06;;;;;;;;;;;;;;;;;;5053313;28;19936;-67
2024/01/11 00:59:32;;;;;;;;;;;;;;;;;;5053123;28;19909;-67
2024/01/11 01:01:58;;;;;;;;;;;;;;;;;;5053402;28;19916;-67
2024/01/11 01:04:24;;;;;;;;;;;;;;;;;;5053469;28;19958;-67
2024/01/11 01:06:53;;;;;;;;;;;;;;;;;;5053104;28;19916;-68
2024/01/11 01:09:19;;;;;;;;;;;;;;;;;;5053524;28;20396;-69
2024/01/11 01:11:45;;;;;;;;;;;;;;;;;;5053490;28;19908;-68
2024/01/11 01:14:11;;;;;;;;;;;;;;;;;;5053052;28;19908;-69
2024/01/11 01:16:37;;;;;;;;;;;;;;;;;;5053372;28;20003;-69
2024/01/11 01:19:03;;;;;;;;;;;;;;;;;;5051689;28;19952;-68
2024/01/11 01:21:28;;;;;;;;;;;;;;;;;;5053334;28;19924;-68
2024/01/11 01:23:54;;;;;;;;;;;;;;;;;;5053356;28;20285;-69
2024/01/11 01:26:20;;;;;;;;;;;;;;;;;;5052906;28;19913;-68
2024/01/11 01:28:46;;;;;;;;;;;;;;;;;;5053326;28;19991;-68
2024/01/11 01:31:12;;;;;;;;;;;;;;;;;;5053336;28;19909;-69
2024/01/11 01:33:38;;;;;;;;;;;;;;;;;;5053068;28;19908;-68
2024/01/11 01:36:04;;;;;;;;;;;;;;;;;;5057114;28;19966;-68
2024/01/11 01:38:30;;;;;;;;;;;;;;;;;;5057295;28;19916;-68
2024/01/11 01:40:56;;;;;;;;;;;;;;;;;;5055292;28;19916;-68
2024/01/11 01:43:22;;;;;;;;;;;;;;;;;;5055717;28;19909;-68
2024/01/11 01:45:48;;;;;;;;;;;;;;;;;;5056948;28;19909;-68
2024/01/11 01:48:14;;;;;;;;;;;;;;;;;;5056505;28;20000;-68
2024/01/11 01:50:40;;;;;;;;;;;;;;;;;;5056955;28;19908;-68
2024/01/11 01:53:06;;;;;;;;;;;;;;;;;;5056986;28;20365;-68
2024/01/11 01:55:32;;;;;;;;;;;;;;;;;;5056229;28;19966;-67
2024/01/11 01:57:58;;;;;;;;;;;;;;;;;;5056762;28;19954;-68
2024/01/11 02:00:23;;;;;;;;;;;;;;;;;;5055275;28;20331;-68
2024/01/11 02:02:49;;;;;;;;;;;;;;;;;;5056253;28;20328;-68
2024/01/11 02:05:15;;;;;;;;;;;;;;;;;;5055309;28;20251;-68
2024/01/11 02:07:41;;;;;;;;;;;;;;;;;;5055329;28;20365;-68
2024/01/11 02:10:07;;;;;;;;;;;;;;;;;;5056426;28;20351;-68
2024/01/11 02:12:33;;;;;;;;;;;;;;;;;;5056685;28;19916;-68
2024/01/11 02:14:59;;;;;;;;;;;;;;;;;;5056415;28;19955;-68
2024/01/11 02:17:25;;;;;;;;;;;;;;;;;;5056007;28;19909;-69
2024/01/11 02:19:51;;;;;;;;;;;;;;;;;;5056370;28;19955;-68
2024/01/11 02:22:17;;;;;;;;;;;;;;;;;;5056357;28;19917;-68
2024/01/11 02:24:43;;;;;;;;;;;;;;;;;;5056142;28;19909;-68
2024/01/11 02:27:10;;;;;;;;;;;;;;;;;;5056295;28;19935;-68
2024/01/11 02:29:36;;;;;;;;;;;;;;;;;;5054418;28;19991;-68
2024/01/11 02:32:02;;;;;;;;;;;;;;;;;;5056039;28;20435;-68
2024/01/11 02:34:28;;;;;;;;;;;;;;;;;;5056589;28;20361;-68
2024/01/11 02:36:54;;;;;;;;;;;;;;;;;;5055595;28;20047;-68
2024/01/11 02:39:20;;;;;;;;;;;;;;;;;;5055910;28;19909;-68
2024/01/11 02:41:46;;;;;;;;;;;;;;;;;;5055858;28;20357;-68
2024/01/11 02:44:12;;;;;;;;;;;;;;;;;;5055227;28;20409;-68
2024/01/11 02:46:38;;;;;;;;;;;;;;;;;;5054559;28;19979;-68
2024/01/11 02:49:04;;;;;;;;;;;;;;;;;;5055762;28;20396;-68
2024/01/11 02:51:30;;;;;;;;;;;;;;;;;;5055447;28;20339;-68
2024/01/11 02:53:56;;;;;;;;;;;;;;;;;;5055671;28;20302;-68
2024/01/11 02:56:23;;;;;;;;;;;;;;;;;;5055532;28;19921;-68
2024/01/11 02:58:49;;;;;;;;;;;;;;;;;;5053847;28;19951;-68
2024/01/11 03:01:15;;;;;;;;;;;;;;;;;;5054224;28;19952;-68
2024/01/11 03:03:41;;;;;;;;;;;;;;;;;;5055393;28;19955;-68
2024/01/11 03:06:07;;;;;;;;;;;;;;;;;;5055055;28;20357;-68
2024/01/11 03:08:33;;;;;;;;;;;;;;;;;;5055485;28;19912;-68
2024/01/11 03:10:59;;;;;;;;;;;;;;;;;;5054114;28;19916;-68
2024/01/11 03:13:25;;;;;;;;;;;;;;;;;;5054887;28;20365;-68
2024/01/11 03:15:51;;;;;;;;;;;;;;;;;;5055220;28;19916;-68
2024/01/11 03:18:17;;;;;;;;;;;;;;;;;;5055201;28;19913;-68
2024/01/11 03:20:43;;;;;;;;;;;;;;;;;;5054637;28;19912;-68
2024/01/11 03:23:09;;;;;;;;;;;;;;;;;;5055064;28;19920;-68
2024/01/11 03:25:35;;;;;;;;;;;;;;;;;;5054861;28;19978;-68
2024/01/11 03:28:01;;;;;;;;;;;;;;;;;;5054985;28;19909;-68
2024/01/11 03:30:27;;;;;;;;;;;;;;;;;;5053644;28;19909;-68
2024/01/11 03:32:53;;;;;;;;;;;;;;;;;;5054512;28;20004;-67
2024/01/11 03:35:19;;;;;;;;;;;;;;;;;;5054834;28;19909;-68
2024/01/11 03:37:45;;;;;;;;;;;;;;;;;;5055212;28;20332;-68
2024/01/11 03:40:11;;;;;;;;;;;;;;;;;;5054338;28;19913;-68
2024/01/11 03:42:37;;;;;;;;;;;;;;;;;;5054774;28;19963;-68
2024/01/11 03:45:03;;;;;;;;;;;;;;;;;;5054921;28;19909;-68
2024/01/11 03:47:29;;;;;;;;;;;;;;;;;;5054234;28;19963;-68
2024/01/11 03:49:54;;;;;;;;;;;;;;;;;;5054865;28;20353;-68
2024/01/11 03:52:20;;;;;;;;;;;;;;;;;;5054504;28;20353;-68
2024/01/11 03:54:46;;;;;;;;;;;;;;;;;;5054253;28;19909;-68
2024/01/11 03:57:12;;;;;;;;;;;;;;;;;;5052350;28;20016;-68
2024/01/11 03:59:38;;;;;;;;;;;;;;;;;;5054360;28;19916;-68
2024/01/11 04:02:04;;;;;;;;;;;;;;;;;;5053907;28;19943;-68
2024/01/11 04:04:30;;;;;;;;;;;;;;;;;;5054327;28;19909;-68
2024/01/11 04:06:56;;;;;;;;;;;;;;;;;;5054309;28;19916;-68
2024/01/11 04:09:22;;;;;;;;;;;;;;;;;;5053742;28;19944;-68
2024/01/11 04:11:48;;;;;;;;;;;;;;;;;;5054075;28;19915;-68
2024/01/11 04:14:14;;;;;;;;;;;;;;;;;;5054846;28;19916;-68
2024/01/11 04:16:40;;;;;;;;;;;;;;;;;;5053756;28;19962;-68
2024/01/11 04:19:06;;;;;;;;;;;;;;;;;;5054083;28;19909;-68
2024/01/11 04:21:32;;;;;;;;;;;;;;;;;;5052650;28;20365;-68
2024/01/11 04:23:58;;;;;;;;;;;;;;;;;;5053705;28;19909;-68
2024/01/11 04:26:24;;;;;;;;;;;;;;;;;;5054167;28;19919;-67
2024/01/11 04:28:50;;;;;;;;;;;;;;;;;;5053896;28;19909;-67
2024/01/11 04:31:19;;;;;;;;;;;;;;;;;;5052169;28;19909;-67
2024/01/11 04:33:45;;;;;;;;;;;;;;;;;;5053987;28;19999;-67
2024/01/11 04:36:11;;;;;;;;;;;;;;;;;;5053420;28;20003;-67
2024/01/11 04:38:40;;;;;;;;;;;;;;;;;;5053707;28;20444;-67
2024/01/11 04:41:06;;;;;;;;;;;;;;;;;;5053735;28;19991;-67
2024/01/11 04:43:31;;;;;;;;;;;;;;;;;;5053340;28;20369;-67
2024/01/11 04:45:57;;;;;;;;;;;;;;;;;;5053627;28;19908;-67
2024/01/11 04:48:23;;;;;;;;;;;;;;;;;;5053677;28;19916;-67
2024/01/11 04:50:49;;;;;;;;;;;;;;;;;;5051966;28;19908;-68
2024/01/11 04:53:15;;;;;;;;;;;;;;;;;;5053569;28;19951;-67
2024/01/11 04:55:41;;;;;;;;;;;;;;;;;;5053366;28;19924;-68
2024/01/11 04:58:07;;;;;;;;;;;;;;;;;;5053147;28;19920;-68
2024/01/11 05:00:33;;;;;;;;;;;;;;;;;;5053434;28;19912;-68
2024/01/11 05:02:59;;;;;;;;;;;;;;;;;;5053456;28;20263;-67
2024/01/11 05:05:25;;;;;;;;;;;;;;;;;;5053205;28;20349;-67
2024/01/11 05:07:51;;;;;;;;;;;;;;;;;;5054211;28;19916;-68
2024/01/11 05:10:17;;;;;;;;;;;;;;;;;;5057500;28;20357;-68
2024/01/11 05:12:43;;;;;;;;;;;;;;;;;;5057215;28;20396;-68
2024/01/11 05:15:09;;;;;;;;;;;;;;;;;;5057810;28;19910;-68
2024/01/11 05:17:35;;;;;;;;;;;;;;;;;;5056185;28;19931;-68
2024/01/11 05:20:01;;;;;;;;;;;;;;;;;;5056993;28;19962;-68
2024/01/11 05:22:27;;;;;;;;;;;;;;;;;;5057276;28;19943;-68
2024/01/11 05:24:53;;;;;;;;;;;;;;;;;;5057264;28;19909;-68
2024/01/11 05:27:19;;;;;;;;;;;;;;;;;;5056935;28;19908;-68
2024/01/11 05:29:44;;;;;;;;;;;;;;;;;;5057171;28;19916;-68
2024/01/11 05:32:10;;;;;;;;;;;;;;;;;;5057044;28;19913;-68
2024/01/11 05:34:36;;;;;;;;;;;;;;;;;;5057024;28;19956;-68
2024/01/11 05:37:02;;;;;;;;;;;;;;;;;;5055733;28;19909;-68
2024/01/11 05:39:28;;;;;;;;;;;;;;;;;;5055240;28;19909;-68
2024/01/11 05:41:54;;;;;;;;;;;;;;;;;;5056918;28;19921;-68
2024/01/11 05:44:20;;;;;;;;;;;;;;;;;;5057257;28;19916;-68
2024/01/11 05:46:46;;;;;;;;;;;;;;;;;;5055219;28;20277;-68
2024/01/11 05:49:12;;;;;;;;;;;;;;;;;;5056874;28;20281;-68
2024/01/11 05:51:38;;;;;;;;;;;;;;;;;;5057055;28;20281;-68
2024/01/11 05:54:04;;;;;;;;;;;;;;;;;;5056392;28;20455;-68
2024/01/11 05:56:30;;;;;;;;;;;;;;;;;;5056676;28;19921;-68
2024/01/11 05:58:56;;;;;;;;;;;;;;;;;;5055481;28;19909;-68
2024/01/11 06:01:22;;;;;;;;;;;;;;;;;;5056102;28;19939;-68
2024/01/11 06:03:48;;;;;;;;;;;;;;;;;;5056637;28;19915;-68
2024/01/11 06:06:14;;;;;;;;;;;;;;;;;;5056916;28;20360;-68
2024/01/11 06:08:41;;;;;;;;;;;;;;;;;;5056064;28;19931;-68
2024/01/11 06:11:07;;;;;;;;;;;;;;;;;;5056862;28;20381;-68
2024/01/11 06:13:33;;;;;;;;;;;;;;;;;;5056551;28;19916;-68
2024/01/11 06:15:59;;;;;;;;;;;;;;;;;;5054754;28;19909;-68
2024/01/11 06:18:25;;;;;;;;;;;;;;;;;;5056430;28;19909;-68
2024/01/11 06:20:51;;;;;;;;;;;;;;;;;;5055806;28;19920;-68
2024/01/11 06:23:18;;;;;;;;;;;;;;;;;;5054550;28;19909;-68
2024/01/11 06:25:46;;;;;;;;;;;;;;;;;;5054942;28;19913;-68
2024/01/11 06:28:12;;;;;;;;;;;;;;;;;;5054892;28;19909;-68
2024/01/11 06:30:38;;;;;;;;;;;;;;;;;;5054422;28;20392;-68
2024/01/11 06:33:04;;;;;;;;;;;;;;;;;;5056089;28;20008;-68
2024/01/11 06:35:30;;;;;;;;;;;;;;;;;;5055798;28;19909;-69
2024/01/11 06:37:56;;;;;;;;;;;;;;;;;;5056622;28;20314;-68
2024/01/11 06:40:22;;;;;;;;;;;;;;;;;;5056070;28;19952;-68
2024/01/11 06:42:48;;;;;;;;;;;;;;;;;;5055597;28;19912;-68
2024/01/11 06:45:14;;;;;;;;;;;;;;;;;;5056035;28;19912;-68
2024/01/11 06:47:40;;;;;;;;;;;;;;;;;;5055863;28;19947;-68
2024/01/11 06:50:06;;;;;;;;;;;;;;;;;;5055378;28;19995;-67
2024/01/11 06:52:32;;;;;;;;;;;;;;;;;;5055716;28;19909;-68
2024/01/11 06:54:58;;;;;;;;;;;;;;;;;;5055717;28;19916;-67
2024/01/11 06:57:24;;;;;;;;;;;;;;;;;;5055196;28;20293;-68
2024/01/11 06:59:50;;;;;;;;;;;;;;;;;;5055627;28;19909;-68
2024/01/11 07:02:16;;;;;;;;;;;;;;;;;;5055494;28;19924;-68
2024/01/11 07:04:42;;;;;;;;;;;;;;;;;;5055050;28;19909;-68
2024/01/11 07:07:08;;;;;;;;;;;;;;;;;;5055496;28;19908;-69
2024/01/11 07:09:34;;;;;;;;;;;;;;;;;;5055687;28;19913;-68
2024/01/11 07:12:01;;;;;;;;;;;;;;;;;;5054894;28;19909;-67
2024/01/11 07:14:28;;;;;;;;;;;;;;;;;;5055784;28;19908;-67
2024/01/11 07:16:54;;;;;;;;;;;;;;;;;;5055241;28;19913;-67
2024/01/11 07:19:20;;;;;;;;;;;;;;;;;;5054828;28;20011;-67
2024/01/11 07:21:46;;;;;;;;;;;;;;;;;;5055025;28;19917;-67
2024/01/11 07:24:12;;;;;;;;;;;;;;;;;;5055087;28;20293;-67
2024/01/11 07:26:38;;;;;;;;;;;;;;;;;;5053518;28;19999;-68
2024/01/11 07:29:04;;;;;;;;;;;;;;;;;;5055036;28;19913;-68
2024/01/11 07:31:30;;;;;;;;;;;;;;;;;;5054042;28;19978;-68
2024/01/11 07:33:56;;;;;;;;;;;;;;;;;;5054584;28;20362;-68
2024/01/11 07:36:22;;;;;;;;;;;;;;;;;;5054887;28;19909;-68
2024/01/11 07:38:48;;;;;;;;;;;;;;;;;;5054406;28;19948;-68
2024/01/11 07:41:14;;;;;;;;;;;;;;;;;;5054732;28;19920;-68
2024/01/11 07:43:40;;;;;;;;;;;;;;;;;;5054713;28;19908;-68
2024/01/11 07:46:07;;;;;;;;;;;;;;;;;;5054343;28;19915;-68
2024/01/11 07:48:33;;;;;;;;;;;;;;;;;;5054681;28;19912;-68
2024/01/11 07:50:59;;;;;;;;;;;;;;;;;;5054594;28;19909;-68
2024/01/11 07:53:25;;;;;;;;;;;;;;;;;;5054222;28;19909;-68
2024/01/11 07:55:51;;;;;;;;;;;;;;;;;;5054270;28;19956;-68
2024/01/11 07:58:17;;;;;;;;;;;;;;;;;;5054379;28;19952;-68
2024/01/11 08:00:43;;;;;;;;;;;;;;;;;;5053910;28;20280;-68
2024/01/11 08:03:09;;;;;;;;;;;;;;;;;;5054405;28;19915;-68
2024/01/11 08:05:35;;;;;;;;;;;;;;;;;;5054887;28;20395;-68
2024/01/11 08:08:03;;;;;;;;;;;;;;;;;;5053919;28;20382;-68
2024/01/11 08:10:30;;;;;;;;;;;;;;;;;;5054207;28;19909;-68
2024/01/11 08:12:56;;;;;;;;;;;;;;;;;;5054125;28;19909;-68
2024/01/11 08:15:22;;;;;;;;;;;;;;;;;;5053671;28;19909;-68
2024/01/11 08:17:48;;;;;;;;;;;;;;;;;;5054126;28;19908;-68
2024/01/11 08:20:14;;;;;;;;;;;;;;;;;;5052730;28;19966;-68
2024/01/11 08:22:40;;;;;;;;;;;;;;;;;;5052386;28;19917;-68
2024/01/11 08:25:06;;;;;;;;;;;;;;;;;;5054012;28;19909;-68
2024/01/11 08:27:33;;;;;;;;;;;;;;;;;;5052742;28;19932;-68
2024/01/11 08:30:00;;;;;;;;;;;;;;;;;;5052309;28;19971;-68
2024/01/11 08:32:26;;;;;;;;;;;;;;;;;;5053887;28;20316;-68
2024/01/11 08:34:52;;;;;;;;;;;;;;;;;;5054002;28;19948;-68
2024/01/11 08:37:18;;;;;;;;;;;;;;;;;;5053422;28;20396;-68
2024/01/11 08:39:46;;;;;;;;;;;;;;;;;;5053806;28;19982;-68
2024/01/11 08:42:12;;;;;;;;;;;;;;;;;;5053038;28;19960;-68
2024/01/11 08:44:38;;;;;;;;;;;;;;;;;;5053800;28;20010;-68
2024/01/11 08:47:03;;;;;;;;;;;;;;;;;;5053750;28;19913;-68
2024/01/11 08:49:29;;;;;;;;;;;;;;;;;;5053341;28;19908;-68
2024/01/11 08:51:55;;;;;;;;;;;;;;;;;;5052349;28;19959;-68
2024/01/11 08:54:21;;;;;;;;;;;;;;;;;;5053678;28;19909;-68
2024/01/11 08:56:47;;;;;;;;;;;;;;;;;;5053163;28;19921;-69
2024/01/11 08:59:13;;;;;;;;;;;;;;;;;;5053638;28;19931;-70
2024/01/11 09:01:40;;;;;;;;;;;;;;;;;;5053539;28;20365;-70
2024/01/11 09:04:06;;;;;;;;;;;;;;;;;;5051794;28;19939;-68
2024/01/11 09:06:33;;;;;;;;;;;;;;;;;;5053442;28;19909;-68
2024/01/11 09:08:59;;;;;;;;;;;;;;;;;;5053516;28;19962;-68
2024/01/11 09:11:25;;;;;;;;;;;;;;;;;;5053008;28;19909;-68
2024/01/11 09:13:51;;;;;;;;;;;;;;;;;;5053445;28;19987;-69
2024/01/11 09:16:17;;;;;;;;;;;;;;;;;;5053470;28;19909;-69
2024/01/11 09:18:43;;;;;;;;;;;;;;;;;;5053150;28;19951;-68
2024/01/11 09:21:09;;;;;;;;;;;;;;;;;;5053465;28;19920;-68
2024/01/11 09:23:35;;;;;;;;;;;;;;;;;;5053914;28;20311;-69
2024/01/11 09:26:01;;;;;;;;;;;;;;;;;;5052989;28;20273;-67
2024/01/11 09:28:27;;;;;;;;;;;;;;;;;;5053312;28;20285;-68
2024/01/11 09:30:53;;;;;;;;;;;;;;;;;;5053552;28;20276;-68
2024/01/11 09:33:20;;;;;;;;;;;;;;;;;;5052916;28;19955;-68
2024/01/11 09:35:46;;;;;;;;;;;;;;;;;;5053807;28;20261;-68
2024/01/11 09:38:12;;;;;;;;;;;;;;;;;;5053043;28;19909;-68
2024/01/11 09:40:38;;;;;;;;;;;;;;;;;;5051588;28;20011;-67
2024/01/11 09:43:04;;;;;;;;;;;;;;;;;;5053316;28;19917;-69
2024/01/11 09:45:30;;;;;;;;;;;;;;;;;;5052781;28;19951;-69
2024/01/11 09:47:56;;;;;;;;;;;;;;;;;;5053682;28;19923;-67
2024/01/11 09:50:22;;;;;;;;;;;;;;;;;;5052948;28;19945;-68
2024/01/11 09:52:48;;;;;;;;;;;;;;;;;;5049085;28;19952;-67
2024/01/11 09:55:16;;;;;;;;;;;;;;;;;;5054475;28;19930;-67
2024/01/11 09:57:42;;;;;;;;;;;;;;;;;;5062977;28;19913;-67
2024/01/11 10:00:08;;;;;;;;;;;;;;;;;;5055539;28;19915;-66
2024/01/11 10:02:34;;;;;;;;;;;;;;;;;;5050654;28;20372;-68
2024/01/11 10:05:00;;;;;;;;;;;;;;;;;;5048857;28;19908;-67
2024/01/11 10:07:26;;;;;;;;;;;;;;;;;;5055622;28;20051;-68
2024/01/11 10:09:53;;;;;;;;;;;;;;;;;;5055269;28;19953;-68
2024/01/11 10:12:24;;;;;;;;;;;;;;;;;;5055151;28;20365;-68
2024/01/11 10:14:51;;;;;;;;;;;;;;;;;;5054618;28;20007;-70
2024/01/11 10:17:17;;;;;;;;;;;;;;;;;;5056315;28;19909;-68
2024/01/11 10:19:43;;;;;;;;;;;;;;;;;;5056059;28;19915;-69
2024/01/11 10:22:12;;;;;;;;;;;;;;;;;;5055195;28;19964;-67
2024/01/11 10:24:38;;;;;;;;;;;;;;;;;;5055997;28;19909;-67
2024/01/11 10:27:11;;;;;;;;;;;;;;;;;;5055292;28;20341;-68
2024/01/11 10:29:36;;;;;;;;;;;;;;;;;;5052838;28;19935;-69
2024/01/11 10:32:02;;;;;;;;;;;;;;;;;;5054960;28;20452;-69
2024/01/11 10:34:28;;;;;;;;;;;;;;;;;;5052650;28;19915;-69
2024/01/11 10:36:54;;;;;;;;;;;;;;;;;;5052310;28;19960;-69
2024/01/11 10:39:20;;;;;;;;;;;;;;;;;;5053954;28;19909;-69
2024/01/11 10:41:46;;;;;;;;;;;;;;;;;;5053381;28;19917;-69
2024/01/11 10:44:13;;;;;;;;;;;;;;;;;;5053872;28;20420;-69
2024/01/11 10:46:40;;;;;;;;;;;;;;;;;;5053947;28;19909;-69
2024/01/11 10:49:06;;;;;;;;;;;;;;;;;;5054926;28;19940;-69
2024/01/11 10:51:32;;;;;;;;;;;;;;;;;;5054450;28;19923;-69
2024/01/11 10:53:58;;;;;;;;;;;;;;;;;;5055942;28;19908;-69
2024/01/11 10:56:24;;;;;;;;;;;;;;;;;;5055125;28;19925;-69
2024/01/11 10:58:50;;;;;;;;;;;;;;;;;;5055608;28;20003;-69
2024/01/11 11:01:16;;;;;;;;;;;;;;;;;;5054307;28;19916;-69
2024/01/11 11:03:45;;;;;;;;;;;;;;;;;;5053898;28;20365;-69
2024/01/11 11:06:11;;;;;;;;;;;;;;;;;;5055767;28;19909;-69
2024/01/11 11:08:37;;;;;;;;;;;;;;;;;;5055475;28;19944;-69
2024/01/11 11:11:05;;;;;;;;;;;;;;;;;;5055042;28;19909;-69
2024/01/11 11:13:31;;;;;;;;;;;;;;;;;;5054176;28;19931;-68
2024/01/11 11:15:57;;;;;;;;;;;;;;;;;;5055419;28;20425;-69
2024/01/11 11:18:23;;;;;;;;;;;;;;;;;;5055083;28;20286;-69
2024/01/11 11:20:50;;;;;;;;;;;;;;;;;;5053935;28;19913;-69
2024/01/11 11:23:17;;;;;;;;;;;;;;;;;;5055182;28;19940;-69
2024/01/11 11:25:43;;;;;;;;;;;;;;;;;;5054801;28;19999;-69
2024/01/11 11:28:09;;;;;;;;;;;;;;;;;;5054187;28;19952;-69
2024/01/11 11:30:35;;;;;;;;;;;;;;;;;;5055111;28;19909;-69
2024/01/11 11:33:01;;;;;;;;;;;;;;;;;;5054793;28;19916;-70
2024/01/11 11:35:26;;;;;;;;;;;;;;;;;;5053683;28;19909;-70
2024/01/11 11:37:52;;;;;;;;;;;;;;;;;;5055085;28;20379;-69
2024/01/11 11:40:18;;;;;;;;;;;;;;;;;;5054485;28;19932;-69
2024/01/11 11:42:44;;;;;;;;;;;;;;;;;;5054790;28;19930;-69
2024/01/11 11:45:11;;;;;;;;;;;;;;;;;;5053070;28;19909;-68
2024/01/11 11:47:38;;;;;;;;;;;;;;;;;;5053475;28;20365;-69
2024/01/11 11:50:10;;;;;;;;;;;;;;;;;;5054952;28;19927;-69
2024/01/11 11:52:36;;;;;;;;;;;;;;;;;;5053663;28;19935;-69
2024/01/11 11:55:02;;;;;;;;;;;;;;;;;;5053192;28;19912;-68
2024/01/11 11:57:28;;;;;;;;;;;;;;;;;;5053642;28;19936;-69
2024/01/11 11:59:54;;;;;;;;;;;;;;;;;;5054192;28;19962;-69
2024/01/11 12:02:22;;;;;;;;;;;;;;;;;;5052475;28;20464;-69
2024/01/11 12:04:48;;;;;;;;;;;;;;;;;;5054438;28;19944;-69
2024/01/11 12:07:14;;;;;;;;;;;;;;;;;;5054041;28;19962;-69
2024/01/11 12:09:39;;;;;;;;;;;;;;;;;;5054326;28;19999;-69
2024/01/11 12:12:05;;;;;;;;;;;;;;;;;;5054318;28;19909;-69
2024/01/11 12:14:31;;;;;;;;;;;;;;;;;;5053906;28;19908;-70
2024/01/11 12:16:57;;;;;;;;;;;;;;;;;;5053670;28;20004;-69
2024/01/11 12:19:23;;;;;;;;;;;;;;;;;;5052870;28;20038;-69
2024/01/11 12:21:49;;;;;;;;;;;;;;;;;;5054033;28;19924;-69
2024/01/11 12:24:15;;;;;;;;;;;;;;;;;;5052841;28;19908;-69
2024/01/11 12:26:41;;;;;;;;;;;;;;;;;;5054146;28;20011;-70
2024/01/11 12:29:08;;;;;;;;;;;;;;;;;;5052423;28;19909;-69
2024/01/11 12:31:35;;;;;;;;;;;;;;;;;;5054150;28;19909;-70
2024/01/11 12:34:01;;;;;;;;;;;;;;;;;;5053885;28;20285;-69
2024/01/11 12:36:27;;;;;;;;;;;;;;;;;;5053431;28;19909;-70
2024/01/11 12:38:53;;;;;;;;;;;;;;;;;;5053943;28;19916;-69
2024/01/11 12:41:19;;;;;;;;;;;;;;;;;;5053381;28;19939;-69
2024/01/11 12:43:44;;;;;;;;;;;;;;;;;;5053750;28;19991;-69
2024/01/11 12:46:10;;;;;;;;;;;;;;;;;;5053808;28;20277;-69
2024/01/11 12:48:36;;;;;;;;;;;;;;;;;;5053280;28;20286;-70
2024/01/11 12:51:02;;;;;;;;;;;;;;;;;;5053736;28;19908;-70
2024/01/11 12:53:29;;;;;;;;;;;;;;;;;;5053589;28;19909;-70
2024/01/11 12:55:54;;;;;;;;;;;;;;;;;;5053248;28;19916;-70
2024/01/11 12:58:27;;;;;;;;;;;;;;;;;;5052350;28;20319;-70
2024/01/11 13:00:53;;;;;;;;;;;;;;;;;;5052349;28;19967;-70
2024/01/11 13:03:20;;;;;;;;;;;;;;;;;;5052012;28;20312;-70
2024/01/11 13:05:46;;;;;;;;;;;;;;;;;;5053831;28;19909;-70
2024/01/11 13:08:12;;;;;;;;;;;;;;;;;;5053468;28;19954;-69
2024/01/11 13:10:38;;;;;;;;;;;;;;;;;;5053177;28;19909;-71
2024/01/11 13:13:04;;;;;;;;;;;;;;;;;;5053325;28;19913;-70
2024/01/11 13:15:31;;;;;;;;;;;;;;;;;;5053529;28;19909;-70
2024/01/11 13:17:57;;;;;;;;;;;;;;;;;;5053117;28;19916;-70
2024/01/11 13:20:23;;;;;;;;;;;;;;;;;;5053430;28;19908;-70
2024/01/11 13:22:49;;;;;;;;;;;;;;;;;;5053433;28;19970;-69
2024/01/11 13:25:15;;;;;;;;;;;;;;;;;;5051705;28;19909;-70
2024/01/11 13:27:41;;;;;;;;;;;;;;;;;;5053380;28;19909;-70
2024/01/11 13:30:08;;;;;;;;;;;;;;;;;;5055902;28;19916;-70
2024/01/11 13:32:34;;;;;;;;;;;;;;;;;;5056887;28;19967;-70
2024/01/11 13:35:00;;;;;;;;;;;;;;;;;;5057221;28;19909;-70
2024/01/11 13:37:25;;;;;;;;;;;;;;;;;;5057154;28;19916;-70
2024/01/11 13:39:51;;;;;;;;;;;;;;;;;;5056755;28;19909;-70
2024/01/11 13:42:17;;;;;;;;;;;;;;;;;;5055816;28;19916;-69
2024/01/11 13:44:43;;;;;;;;;;;;;;;;;;5056677;28;19913;-69
2024/01/11 13:47:09;;;;;;;;;;;;;;;;;;5055827;28;19909;-69
2024/01/11 13:49:35;;;;;;;;;;;;;;;;;;5055646;28;19959;-69
2024/01/11 13:52:01;;;;;;;;;;;;;;;;;;5056688;28;19913;-69
2024/01/11 13:54:27;;;;;;;;;;;;;;;;;;5057505;28;20388;-69
2024/01/11 13:56:53;;;;;;;;;;;;;;;;;;5056658;28;19952;-70
2024/01/11 13:59:19;;;;;;;;;;;;;;;;;;5056423;28;20373;-69
2024/01/11 14:01:45;;;;;;;;;;;;;;;;;;5056856;28;19924;-69
2024/01/11 14:04:11;;;;;;;;;;;;;;;;;;5055437;28;19908;-69
2024/01/11 14:06:37;;;;;;;;;;;;;;;;;;5056206;28;19961;-69
2024/01/11 14:09:04;;;;;;;;;;;;;;;;;;5056542;28;19909;-69
2024/01/11 14:11:30;;;;;;;;;;;;;;;;;;5055085;28;19916;-70
2024/01/11 14:13:56;;;;;;;;;;;;;;;;;;5056142;28;19909;-69
2024/01/11 14:16:22;;;;;;;;;;;;;;;;;;5056655;28;19916;-69
2024/01/11 14:18:49;;;;;;;;;;;;;;;;;;5056484;28;19944;-69
2024/01/11 14:21:15;;;;;;;;;;;;;;;;;;5055974;28;19913;-69
2024/01/11 14:23:41;;;;;;;;;;;;;;;;;;5056299;28;19913;-69
2024/01/11 14:26:07;;;;;;;;;;;;;;;;;;5054962;28;20043;-69
2024/01/11 14:28:33;;;;;;;;;;;;;;;;;;5054559;28;19987;-69
2024/01/11 14:30:58;;;;;;;;;;;;;;;;;;5056460;28;19916;-70
2024/01/11 14:33:24;;;;;;;;;;;;;;;;;;5056125;28;19995;-70
2024/01/11 14:35:50;;;;;;;;;;;;;;;;;;5055790;28;19909;-70
2024/01/11 14:38:16;;;;;;;;;;;;;;;;;;5056083;28;19908;-70
2024/01/11 14:40:42;;;;;;;;;;;;;;;;;;5054248;28;19970;-70
2024/01/11 14:43:08;;;;;;;;;;;;;;;;;;5055510;28;19913;-71
2024/01/11 14:45:34;;;;;;;;;;;;;;;;;;5056279;28;19960;-70
2024/01/11 14:48:00;;;;;;;;;;;;;;;;;;5055424;28;19959;-69
2024/01/11 14:50:26;;;;;;;;;;;;;;;;;;5055829;28;19908;-69
2024/01/11 14:52:52;;;;;;;;;;;;;;;;;;5055762;28;19912;-69
2024/01/11 14:55:18;;;;;;;;;;;;;;;;;;5055139;28;19956;-68
2024/01/11 14:57:44;;;;;;;;;;;;;;;;;;5054493;28;20345;-69
2024/01/11 15:00:10;;;;;;;;;;;;;;;;;;5054315;28;20285;-69
2024/01/11 15:02:36;;;;;;;;;;;;;;;;;;5053748;28;19916;-69
2024/01/11 15:05:02;;;;;;;;;;;;;;;;;;5055689;28;19908;-69
2024/01/11 15:07:28;;;;;;;;;;;;;;;;;;5055849;28;20357;-69
2024/01/11 15:09:55;;;;;;;;;;;;;;;;;;5055116;28;20254;-69
2024/01/11 15:12:21;;;;;;;;;;;;;;;;;;5055459;28;19971;-69
2024/01/11 15:14:50;;;;;;;;;;;;;;;;;;5054094;28;20254;-69
2024/01/11 15:17:17;;;;;;;;;;;;;;;;;;5054902;28;20262;-69
2024/01/11 15:19:43;;;;;;;;;;;;;;;;;;5055353;28;20011;-69
2024/01/11 15:22:12;;;;;;;;;;;;;;;;;;5055225;28;20011;-69
2024/01/11 15:24:38;;;;;;;;;;;;;;;;;;5053559;28;19915;-69
2024/01/11 15:27:03;;;;;;;;;;;;;;;;;;5055138;28;20011;-69
2024/01/11 15:29:29;;;;;;;;;;;;;;;;;;5055135;28;19908;-69
2024/01/11 15:31:55;;;;;;;;;;;;;;;;;;5053368;28;20280;-68
2024/01/11 15:34:22;;;;;;;;;;;;;;;;;;5055486;28;20289;-68
2024/01/11 15:36:48;;;;;;;;;;;;;;;;;;5054043;28;20338;-69
2024/01/11 15:39:14;;;;;;;;;;;;;;;;;;5053237;28;19952;-69
2024/01/11 15:41:41;;;;;;;;;;;;;;;;;;5053437;28;20266;-69
2024/01/11 15:44:07;;;;;;;;;;;;;;;;;;5054461;28;19909;-69
2024/01/11 15:46:33;;;;;;;;;;;;;;;;;;5054752;28;19909;-70
2024/01/11 15:48:59;;;;;;;;;;;;;;;;;;5055045;28;19975;-69
2024/01/11 15:51:25;;;;;;;;;;;;;;;;;;5054084;28;20023;-69
2024/01/11 15:53:51;;;;;;;;;;;;;;;;;;5054208;28;19908;-69
2024/01/11 15:56:17;;;;;;;;;;;;;;;;;;5054467;28;19920;-69
2024/01/11 15:58:43;;;;;;;;;;;;;;;;;;5054076;28;19909;-69
2024/01/11 16:01:09;;;;;;;;;;;;;;;;;;5054384;28;19917;-69
2024/01/11 16:03:35;;;;;;;;;;;;;;;;;;5054933;28;20372;-69
2024/01/11 16:06:01;;;;;;;;;;;;;;;;;;5054066;28;20046;-69
2024/01/11 16:08:27;;;;;;;;;;;;;;;;;;5054373;28;20283;-70
2024/01/11 16:10:53;;;;;;;;;;;;;;;;;;5054240;28;19909;-69
2024/01/11 16:13:19;;;;;;;;;;;;;;;;;;5053842;28;19915;-69
2024/01/11 16:15:45;;;;;;;;;;;;;;;;;;5054838;28;19956;-69
2024/01/11 16:18:11;;;;;;;;;;;;;;;;;;5054176;28;19909;-70
2024/01/11 16:20:37;;;;;;;;;;;;;;;;;;5053784;28;19908;-69
2024/01/11 16:23:03;;;;;;;;;;;;;;;;;;5052746;28;19922;-69
2024/01/11 16:25:29;;;;;;;;;;;;;;;;;;5054000;28;19995;-69
2024/01/11 16:27:54;;;;;;;;;;;;;;;;;;5052207;28;19915;-69
2024/01/11 16:30:20;;;;;;;;;;;;;;;;;;5053928;28;19909;-69
2024/01/11 16:32:47;;;;;;;;;;;;;;;;;;5053874;28;19996;-69
2024/01/11 16:35:13;;;;;;;;;;;;;;;;;;5052185;28;19909;-69
2024/01/11 16:37:39;;;;;;;;;;;;;;;;;;5052753;28;19909;-69